Time,TemperatureF,DewpointF,PressureIn,WindDirection,WindDirectionDegrees,WindSpeedMPH,WindSpeedGustMPH,Humidity,HourlyPrecipIn,Conditions,Clouds,dailyrainin,SoftwareType,DateUTC
2013-05-22 00:01:00,66.8,66.0,29.95,SE,143,0.0,0.0,97,0.00,,,0.00,weatherlink.com 1.10,2013-05-22 05:01:00,
2013-05-22 00:16:00,-999.0,-99.9,29.95,North,-999,-999.0,-999.0,-999,0.00,,,0.00,weatherlink.com 1.10,2013-05-22 05:16:00,
2013-05-22 00:31:00,-999.0,-99.9,29.94,North,-999,-999.0,-999.0,-999,0.00,,,0.00,weatherlink.com 1.10,2013-05-22 05:31:00,
2013-05-22 00:46:00,-999.0,-99.9,29.95,North,-999,-999.0,-999.0,-999,0.00,,,0.00,weatherlink.com 1.10,2013-05-22 05:46:00,
2013-05-22 01:01:00,-999.0,-99.9,29.94,North,-999,-999.0,-999.0,-999,0.00,,,0.00,weatherlink.com 1.10,2013-05-22 06:01:00,
2013-05-22 01:16:00,-999.0,-99.9,29.94,North,-999,-999.0,-999.0,-999,0.00,,,0.00,weatherlink.com 1.10,2013-05-22 06:16:00,
2013-05-22 01:31:00,-999.0,-99.9,29.94,North,-999,-999.0,-999.0,-999,0.00,,,0.00,weatherlink.com 1.10,2013-05-22 06:31:00,
2013-05-22 01:46:00,-999.0,-99.9,29.94,North,-999,-999.0,-999.0,-999,0.00,,,0.00,weatherlink.com 1.10,2013-05-22 06:46:00,
2013-05-22 02:01:00,-999.0,-99.9,29.94,North,-999,-999.0,-999.0,-999,0.00,,,0.00,weatherlink.com 1.10,2013-05-22 07:01:00,
2013-05-22 02:16:00,-999.0,-99.9,29.94,North,-999,-999.0,-999.0,-999,0.00,,,0.00,weatherlink.com 1.10,2013-05-22 07:16:00,
2013-05-22 02:32:00,-999.0,-99.9,29.94,North,-999,-999.0,-999.0,-999,0.00,,,0.00,weatherlink.com 1.10,2013-05-22 07:32:00,
2013-05-22 02:47:00,-999.0,-99.9,29.94,North,-999,-999.0,-999.0,-999,0.00,,,0.00,weatherlink.com 1.10,2013-05-22 07:47:00,
2013-05-22 03:02:00,-999.0,-99.9,29.94,North,-999,-999.0,-999.0,-999,0.00,,,0.00,weatherlink.com 1.10,2013-05-22 08:02:00,
2013-05-22 03:17:00,-999.0,-99.9,29.94,North,-999,-999.0,-999.0,-999,0.00,,,0.00,weatherlink.com 1.10,2013-05-22 08:17:00,
2013-05-22 03:32:00,-999.0,-99.9,29.95,North,-999,-999.0,-999.0,-999,0.00,,,0.00,weatherlink.com 1.10,2013-05-22 08:32:00,
2013-05-22 03:47:00,-999.0,-99.9,29.95,North,-999,-999.0,-999.0,-999,0.00,,,0.00,weatherlink.com 1.10,2013-05-22 08:47:00,
2013-05-22 04:02:00,-999.0,-99.9,29.96,North,-999,-999.0,-999.0,-999,0.00,,,0.00,weatherlink.com 1.10,2013-05-22 09:02:00,
2013-05-22 04:17:00,-999.0,-99.9,29.96,North,-999,-999.0,-999.0,-999,0.00,,,0.00,weatherlink.com 1.10,2013-05-22 09:17:00,
2013-05-22 04:32:00,-999.0,-99.9,29.97,North,-999,-999.0,-999.0,-999,0.00,,,0.00,weatherlink.com 1.10,2013-05-22 09:32:00,
2013-05-22 04:47:00,70.9,68.0,29.96,WNW,286,4.0,12.0,89,0.00,,,0.00,weatherlink.com 1.10,2013-05-22 09:47:00,
2013-05-22 05:02:00,70.5,68.0,29.95,West,266,6.0,9.0,90,0.00,,,0.00,weatherlink.com 1.10,2013-05-22 10:02:00,
2013-05-22 05:17:00,69.8,67.0,29.95,WSW,252,4.0,9.0,91,0.00,,,0.00,weatherlink.com 1.10,2013-05-22 10:17:00,
2013-05-22 05:32:00,69.2,67.0,29.95,West,261,5.0,5.0,92,0.00,,,0.00,weatherlink.com 1.10,2013-05-22 10:32:00,
2013-05-22 05:47:00,68.7,67.0,29.95,NW,315,0.0,3.0,93,0.00,,,0.00,weatherlink.com 1.10,2013-05-22 10:47:00,
2013-05-22 06:02:00,68.1,66.0,29.95,NW,315,0.0,0.0,94,0.00,,,0.00,weatherlink.com 1.10,2013-05-22 11:02:00,
2013-05-22 06:17:00,67.8,66.0,29.95,NW,314,0.0,1.0,95,0.00,,,0.00,weatherlink.com 1.10,2013-05-22 11:17:00,
2013-05-22 06:32:00,67.9,67.0,29.96,NW,314,0.0,0.0,96,0.00,,,0.00,weatherlink.com 1.10,2013-05-22 11:32:00,
2013-05-22 06:47:00,68.3,67.0,29.95,ESE,122,1.0,2.0,96,0.00,,,0.00,weatherlink.com 1.10,2013-05-22 11:47:00,
2013-05-22 07:02:00,69.2,68.0,29.94,SE,129,1.0,3.0,95,0.00,,,0.00,weatherlink.com 1.10,2013-05-22 12:02:00,
2013-05-22 07:17:00,69.4,68.0,29.94,ESE,122,1.0,4.0,94,0.00,,,0.00,weatherlink.com 1.10,2013-05-22 12:17:00,
2013-05-22 07:32:00,69.6,68.0,29.93,SE,131,2.0,4.0,94,0.00,,,0.00,weatherlink.com 1.10,2013-05-22 12:32:00,
2013-05-22 07:47:00,69.9,68.0,29.94,SSE,168,2.0,4.0,93,0.00,,,0.00,weatherlink.com 1.10,2013-05-22 12:47:00,
2013-05-22 08:02:00,70.4,68.0,29.93,SE,131,1.0,6.0,92,0.00,,,0.00,weatherlink.com 1.10,2013-05-22 13:02:00,
2013-05-22 08:17:00,71.2,69.0,29.94,ESE,113,4.0,6.0,92,0.00,,,0.00,weatherlink.com 1.10,2013-05-22 13:17:00,
2013-05-22 08:32:00,72.2,69.0,29.93,SSW,194,4.0,9.0,88,0.00,,,0.00,weatherlink.com 1.10,2013-05-22 13:32:00,
2013-05-22 08:47:00,71.9,68.0,29.93,ESE,118,3.0,8.0,88,0.00,,,0.00,weatherlink.com 1.10,2013-05-22 13:47:00,
2013-05-22 09:02:00,72.4,69.0,29.94,SE,146,2.0,7.0,88,0.00,,,0.00,weatherlink.com 1.10,2013-05-22 14:02:00,
2013-05-22 09:18:00,73.6,70.0,29.94,SE,135,6.0,9.0,87,0.00,,,0.00,weatherlink.com 1.10,2013-05-22 14:18:00,
2013-05-22 09:33:00,74.4,70.0,29.95,SE,139,5.0,9.0,85,0.00,,,0.00,weatherlink.com 1.10,2013-05-22 14:33:00,
2013-05-22 09:48:00,75.6,70.0,29.95,SSE,148,9.0,11.0,82,0.00,,,0.00,weatherlink.com 1.10,2013-05-22 14:48:00,
2013-05-22 10:03:00,75.6,70.0,29.95,ESE,107,3.0,12.0,83,0.00,,,0.00,weatherlink.com 1.10,2013-05-22 15:03:00,
2013-05-22 10:18:00,76.4,70.0,29.95,South,184,5.0,8.0,80,0.00,,,0.00,weatherlink.com 1.10,2013-05-22 15:18:00,
2013-05-22 10:33:00,77.4,70.0,29.96,West,262,2.0,9.0,78,0.00,,,0.00,weatherlink.com 1.10,2013-05-22 15:33:00,
2013-05-22 10:48:00,79.2,70.0,29.97,NW,304,1.0,7.0,74,0.00,,,0.00,weatherlink.com 1.10,2013-05-22 15:48:00,
2013-05-22 11:03:00,79.0,71.0,29.97,SE,127,5.0,12.0,76,0.00,,,0.00,weatherlink.com 1.10,2013-05-22 16:03:00,
2013-05-22 11:18:00,80.3,71.0,29.97,ESE,119,2.0,7.0,72,0.00,,,0.00,weatherlink.com 1.10,2013-05-22 16:18:00,
2013-05-22 11:33:00,79.6,69.0,29.96,SSE,150,1.0,9.0,71,0.00,,,0.00,weatherlink.com 1.10,2013-05-22 16:33:00,
2013-05-22 11:48:00,79.8,70.0,29.96,SSE,153,1.0,9.0,71,0.00,,,0.00,weatherlink.com 1.10,2013-05-22 16:48:00,
2013-05-22 12:03:00,80.1,70.0,29.95,NW,304,4.0,7.0,70,0.00,,,0.00,weatherlink.com 1.10,2013-05-22 17:03:00,
2013-05-22 12:18:00,81.1,70.0,29.95,SW,231,4.0,6.0,68,0.00,,,0.00,weatherlink.com 1.10,2013-05-22 17:18:00,
2013-05-22 12:33:00,81.4,69.0,29.95,SSE,156,1.0,12.0,65,0.00,,,0.00,weatherlink.com 1.10,2013-05-22 17:33:00,
2013-05-22 12:48:00,81.7,69.0,29.95,WSW,250,6.0,8.0,65,0.00,,,0.00,weatherlink.com 1.10,2013-05-22 17:48:00,
2013-05-22 13:03:00,81.6,67.0,29.94,WNW,293,3.0,9.0,61,0.00,,,0.00,weatherlink.com 1.10,2013-05-22 18:03:00,
2013-05-22 13:18:00,81.3,68.0,29.94,WNW,285,2.0,8.0,65,0.00,,,0.00,weatherlink.com 1.10,2013-05-22 18:18:00,
2013-05-22 13:48:00,83.2,69.0,29.93,West,266,3.0,11.0,63,0.00,,,0.00,weatherlink.com 1.10,2013-05-22 18:48:00,
2013-05-22 14:04:00,82.7,70.0,29.92,WNW,295,5.0,5.0,65,0.00,,,0.00,weatherlink.com 1.10,2013-05-22 19:04:00,
2013-05-22 14:18:00,82.3,70.0,29.92,West,260,0.0,6.0,66,0.00,,,0.00,weatherlink.com 1.10,2013-05-22 19:18:00,
2013-05-22 14:33:00,81.9,70.0,29.91,SSW,192,2.0,6.0,67,0.00,,,0.00,weatherlink.com 1.10,2013-05-22 19:33:00,
2013-05-22 14:48:00,82.3,71.0,29.90,SSE,163,2.0,10.0,68,0.00,,,0.00,weatherlink.com 1.10,2013-05-22 19:48:00,
2013-05-22 15:03:00,81.0,69.0,29.90,WNW,287,2.0,10.0,67,0.00,,,0.00,weatherlink.com 1.10,2013-05-22 20:03:00,
2013-05-22 15:18:00,81.0,69.0,29.90,East,79,2.0,5.0,68,0.00,,,0.00,weatherlink.com 1.10,2013-05-22 20:18:00,
2013-05-22 15:33:00,80.7,68.0,29.90,WNW,285,1.0,8.0,66,0.00,,,0.00,weatherlink.com 1.10,2013-05-22 20:33:00,
2013-05-22 15:48:00,77.5,65.0,29.90,West,276,5.0,6.0,66,0.00,,,0.00,weatherlink.com 1.10,2013-05-22 20:48:00,
2013-05-22 16:03:00,76.0,66.0,29.89,NW,304,0.0,5.0,71,0.00,,,0.00,weatherlink.com 1.10,2013-05-22 21:03:00,
2013-05-22 16:19:00,76.1,67.0,29.88,West,262,2.0,2.0,73,0.00,,,0.00,weatherlink.com 1.10,2013-05-22 21:19:00,
2013-05-22 16:34:00,77.0,68.0,29.88,West,276,1.0,1.0,73,0.00,,,0.00,weatherlink.com 1.10,2013-05-22 21:34:00,
2013-05-22 16:49:00,78.2,69.0,29.88,SSW,193,0.0,0.0,73,0.00,,,0.00,weatherlink.com 1.10,2013-05-22 21:49:00,
2013-05-22 17:03:00,80.7,69.0,29.88,SSW,203,0.0,3.0,68,0.00,,,0.00,weatherlink.com 1.10,2013-05-22 22:03:00,
2013-05-22 17:18:00,81.4,70.0,29.89,West,260,0.0,4.0,69,0.00,,,0.00,weatherlink.com 1.10,2013-05-22 22:18:00,
2013-05-22 17:33:00,79.7,67.0,29.89,WSW,246,6.0,6.0,66,0.00,,,0.00,weatherlink.com 1.10,2013-05-22 22:33:00,
2013-05-22 17:48:00,78.2,68.0,29.89,West,280,1.0,7.0,71,0.00,,,0.00,weatherlink.com 1.10,2013-05-22 22:48:00,
2013-05-22 18:03:00,77.7,66.0,29.88,NW,307,4.0,7.0,67,0.00,,,0.00,weatherlink.com 1.10,2013-05-22 23:03:00,
2013-05-22 18:18:00,78.3,66.0,29.88,WNW,284,2.0,4.0,67,0.00,,,0.00,weatherlink.com 1.10,2013-05-22 23:18:00,
2013-05-22 18:33:00,79.7,68.0,29.89,West,281,0.0,3.0,68,0.00,,,0.00,weatherlink.com 1.10,2013-05-22 23:33:00,
2013-05-22 18:48:00,76.7,68.0,29.90,SE,130,1.0,7.0,75,0.00,,,0.00,weatherlink.com 1.10,2013-05-22 23:48:00,
2013-05-22 19:03:00,75.4,68.0,29.89,SE,124,0.0,2.0,77,0.00,,,0.00,weatherlink.com 1.10,2013-05-23 00:03:00,
2013-05-22 19:18:00,74.2,68.0,29.90,SE,136,0.0,3.0,81,0.00,,,0.00,weatherlink.com 1.10,2013-05-23 00:18:00,
2013-05-22 19:33:00,73.2,68.0,29.90,SE,135,0.0,1.0,83,0.00,,,0.00,weatherlink.com 1.10,2013-05-23 00:33:00,
2013-05-22 19:48:00,72.4,68.0,29.91,West,281,0.0,1.0,86,0.00,,,0.00,weatherlink.com 1.10,2013-05-23 00:48:00,
2013-05-22 20:03:00,71.8,67.0,29.91,SE,138,0.0,1.0,84,0.00,,,0.00,weatherlink.com 1.10,2013-05-23 01:03:00,
2013-05-22 20:18:00,71.0,67.0,29.91,SE,138,0.0,1.0,87,0.00,,,0.00,weatherlink.com 1.10,2013-05-23 01:18:00,
2013-05-22 20:33:00,70.2,67.0,29.91,SE,138,0.0,0.0,89,0.00,,,0.00,weatherlink.com 1.10,2013-05-23 01:33:00,
2013-05-22 20:48:00,69.3,66.0,29.91,SSE,150,0.0,3.0,90,0.00,,,0.00,weatherlink.com 1.10,2013-05-23 01:48:00,
2013-05-22 21:03:00,68.5,66.0,29.92,SE,126,0.0,2.0,91,0.00,,,0.00,weatherlink.com 1.10,2013-05-23 02:03:00,
2013-05-22 21:18:00,68.1,65.0,29.92,SE,132,0.0,1.0,91,0.00,,,0.00,weatherlink.com 1.10,2013-05-23 02:18:00,
2013-05-22 21:33:00,67.3,65.0,29.93,SE,132,0.0,0.0,92,0.00,,,0.00,weatherlink.com 1.10,2013-05-23 02:33:00,
2013-05-22 21:48:00,66.7,65.0,29.93,SE,133,0.0,0.0,94,0.00,,,0.00,weatherlink.com 1.10,2013-05-23 02:48:00,
2013-05-22 22:04:00,65.9,65.0,29.94,SE,132,0.0,0.0,95,0.00,,,0.00,weatherlink.com 1.10,2013-05-23 03:04:00,
2013-05-22 22:18:00,65.6,64.0,29.94,SE,132,0.0,0.0,95,0.00,,,0.00,weatherlink.com 1.10,2013-05-23 03:18:00,
2013-05-22 22:33:00,65.4,64.0,29.94,SE,132,0.0,0.0,96,0.00,,,0.00,weatherlink.com 1.10,2013-05-23 03:33:00,
2013-05-22 22:48:00,64.9,64.0,29.94,SE,132,0.0,0.0,96,0.00,,,0.00,weatherlink.com 1.10,2013-05-23 03:48:00,
2013-05-22 23:03:00,65.0,64.0,29.94,West,278,0.0,1.0,97,0.00,,,0.00,weatherlink.com 1.10,2013-05-23 04:03:00,